createdAt,value
2022-08-02T00:01:09.204Z,23.60
2022-08-02T00:03:40.388Z,23.70
2022-08-02T00:06:10.582Z,23.70
2022-08-02T00:08:40.670Z,23.70
2022-08-02T00:11:10.834Z,23.70
2022-08-02T00:13:41.346Z,23.70
2022-08-02T00:16:11.469Z,23.70
2022-08-02T00:18:47.462Z,23.70
2022-08-02T00:21:17.608Z,23.70
2022-08-02T00:24:27.810Z,23.70
2022-08-02T00:26:40.204Z,23.70
2022-08-02T00:29:10.368Z,23.70
2022-08-02T00:31:40.548Z,23.70
2022-08-02T00:34:29.164Z,23.80
2022-08-02T00:37:01.376Z,23.70
2022-08-02T00:39:33.637Z,23.80
2022-08-02T00:42:06.033Z,23.70
2022-08-02T00:44:36.528Z,23.80
2022-08-02T00:47:06.674Z,23.80
2022-08-02T00:49:36.885Z,23.80
2022-08-02T00:52:07.408Z,23.80
2022-08-02T00:54:38.573Z,23.80
2022-08-02T00:57:08.993Z,23.90
2022-08-02T00:59:39.275Z,23.90
2022-08-02T01:02:10.718Z,23.90
2022-08-02T01:04:41.814Z,23.90
2022-08-02T01:07:15.620Z,23.90
2022-08-02T01:09:46.326Z,23.90
2022-08-02T01:12:16.693Z,23.90
2022-08-02T01:14:49.134Z,23.90
2022-08-02T01:17:36.387Z,23.90
2022-08-02T01:20:30.981Z,23.90
2022-08-02T01:23:07.471Z,24.00
2022-08-02T01:26:19.430Z,24.00
2022-08-02T01:29:15.796Z,24.00
2022-08-02T01:31:57.186Z,24.00
2022-08-02T01:34:44.013Z,24.00
2022-08-02T01:37:18.614Z,24.10
2022-08-02T01:39:50.407Z,24.00
2022-08-02T01:42:20.691Z,24.00
2022-08-02T01:44:51.247Z,24.10
2022-08-02T01:47:28.301Z,24.10
2022-08-02T01:50:00.353Z,24.10
2022-08-02T01:52:32.466Z,24.20
2022-08-02T01:55:05.874Z,24.20
2022-08-02T01:57:57.242Z,24.20
2022-08-02T02:00:28.908Z,24.20
2022-08-02T02:02:59.866Z,24.20
2022-08-02T02:05:31.180Z,24.20
2022-08-02T02:08:01.913Z,24.20
2022-08-02T02:10:33.289Z,24.20
2022-08-02T02:13:11.461Z,24.30
2022-08-02T02:15:46.385Z,24.30
2022-08-02T02:18:22.491Z,24.30
2022-08-02T02:20:52.951Z,24.40
2022-08-02T02:23:25.089Z,24.40
2022-08-02T02:25:56.455Z,24.40
2022-08-02T02:28:31.445Z,24.50
2022-08-02T02:31:07.595Z,24.50
2022-08-02T02:33:46.633Z,24.50
2022-08-02T02:36:18.360Z,24.60
2022-08-02T02:38:48.680Z,24.60
2022-08-02T02:41:19.006Z,24.60
2022-08-02T02:43:49.119Z,24.70
2022-08-02T02:46:19.631Z,24.70
2022-08-02T02:48:51.129Z,24.80
2022-08-02T02:51:23.462Z,24.80
2022-08-02T02:54:33.739Z,24.80
2022-08-02T02:56:44.873Z,24.90
2022-08-02T02:59:16.440Z,24.90
2022-08-02T03:01:57.395Z,24.90
2022-08-02T03:04:35.957Z,25.00
2022-08-02T03:07:20.551Z,25.00
2022-08-02T03:09:54.165Z,25.00
2022-08-02T03:12:31.438Z,24.90
2022-08-02T03:15:05.412Z,25.00
2022-08-02T03:17:43.149Z,24.90
2022-08-02T03:20:20.158Z,24.90
2022-08-02T03:22:50.449Z,24.90
2022-08-02T03:25:20.748Z,24.90
2022-08-02T03:27:50.939Z,24.90
2022-08-02T03:30:21.045Z,24.90
2022-08-02T03:32:51.152Z,24.90
2022-08-02T03:35:24.102Z,24.90
2022-08-02T03:37:55.706Z,25.00
2022-08-02T03:40:25.886Z,25.00
2022-08-02T03:42:56.545Z,25.00
2022-08-02T03:45:27.114Z,25.00
2022-08-02T03:47:58.903Z,25.00
2022-08-02T03:50:29.502Z,25.00
2022-08-02T03:53:00.149Z,25.00
2022-08-02T03:55:30.358Z,25.00
2022-08-02T03:58:01.045Z,25.00
2022-08-02T04:00:31.459Z,25.00
2022-08-02T04:03:02.170Z,25.00
2022-08-02T04:05:32.559Z,25.10
2022-08-02T04:08:36.792Z,25.10
2022-08-02T04:11:11.181Z,25.10
2022-08-02T04:13:41.387Z,25.10
2022-08-02T04:16:21.713Z,25.10
2022-08-02T04:18:59.898Z,25.10
2022-08-02T04:21:51.754Z,25.20
2022-08-02T04:24:37.948Z,25.20
2022-08-02T04:27:48.786Z,25.20
2022-08-02T04:29:58.553Z,25.20
2022-08-02T04:32:28.642Z,25.20
2022-08-02T04:35:18.821Z,25.20
2022-08-02T04:38:09.562Z,25.30
2022-08-02T04:40:39.759Z,25.30
2022-08-02T04:43:09.924Z,25.30
2022-08-02T04:45:40.043Z,25.30
2022-08-02T04:48:10.639Z,25.40
2022-08-02T04:50:40.796Z,25.40
2022-08-02T04:53:11.452Z,25.40
2022-08-02T04:55:41.621Z,25.40
2022-08-02T04:58:38.167Z,25.50
2022-08-02T05:01:02.454Z,25.50
2022-08-02T05:03:32.625Z,25.50
2022-08-02T05:06:02.842Z,25.50
2022-08-02T05:08:33.963Z,25.50
2022-08-02T05:11:04.260Z,25.50
2022-08-02T05:13:34.376Z,25.60
2022-08-02T05:16:24.602Z,25.60
2022-08-02T05:19:03.335Z,25.60
2022-08-02T05:21:33.874Z,25.70
2022-08-02T05:24:04.358Z,25.70
2022-08-02T05:26:34.559Z,25.70
2022-08-02T05:29:05.801Z,25.70
2022-08-02T05:31:36.054Z,25.80
2022-08-02T05:34:10.005Z,25.80
2022-08-02T05:36:42.419Z,25.80
2022-08-02T05:39:18.679Z,25.90
2022-08-02T05:41:49.651Z,25.90
2022-08-02T05:44:20.106Z,25.90
2022-08-02T05:46:50.184Z,26.00
2022-08-02T05:49:20.697Z,26.00
2022-08-02T05:52:03.772Z,26.00
2022-08-02T05:54:39.589Z,26.00
2022-08-02T05:57:09.757Z,26.10
2022-08-02T05:59:58.473Z,26.10
2022-08-02T06:02:38.874Z,26.10
2022-08-02T06:05:20.811Z,26.20
2022-08-02T06:07:51.272Z,26.30
2022-08-02T06:10:23.028Z,26.30
2022-08-02T06:13:14.280Z,26.30
2022-08-02T06:15:53.268Z,26.40
2022-08-02T06:18:28.363Z,26.50
2022-08-02T06:21:54.205Z,26.60
2022-08-02T06:23:58.104Z,26.60
2022-08-02T06:26:29.985Z,26.70
2022-08-02T06:29:00.430Z,26.70
2022-08-02T06:31:30.571Z,26.80
2022-08-02T06:34:00.745Z,26.70
2022-08-02T06:37:13.589Z,26.80
2022-08-02T06:39:49.440Z,26.80
2022-08-02T06:42:28.530Z,26.80
2022-08-02T06:44:59.473Z,26.80
2022-08-02T06:47:29.843Z,26.90
2022-08-02T06:50:00.207Z,26.90
2022-08-02T06:52:32.298Z,27.00
2022-08-02T06:55:03.401Z,27.10
2022-08-02T06:57:33.615Z,27.10
2022-08-02T07:00:05.817Z,27.20
2022-08-02T07:02:40.956Z,27.20
2022-08-02T07:05:11.408Z,27.20
2022-08-02T07:07:41.654Z,27.20
2022-08-02T07:10:11.941Z,27.20
2022-08-02T07:12:42.061Z,27.20
2022-08-02T07:15:13.778Z,27.30
2022-08-02T07:17:43.888Z,27.30
2022-08-02T07:20:14.706Z,27.30
2022-08-02T07:22:44.966Z,27.30
2022-08-02T07:25:15.009Z,27.40
2022-08-02T07:27:45.191Z,27.40
2022-08-02T07:30:15.442Z,27.90
2022-08-02T07:32:45.547Z,28.90
2022-08-02T07:35:16.346Z,30.40
2022-08-02T07:37:55.435Z,31.40
2022-08-02T07:40:32.363Z,32.30
2022-08-02T07:43:04.107Z,32.70
2022-08-02T07:45:36.009Z,33.00
2022-08-02T07:48:07.290Z,33.30
2022-08-02T07:50:37.387Z,33.40
2022-08-02T07:53:07.535Z,33.60
2022-08-02T07:55:40.316Z,33.60
2022-08-02T07:58:13.070Z,33.60
2022-08-02T08:00:47.306Z,33.90
2022-08-02T08:03:17.324Z,34.10
2022-08-02T08:05:48.035Z,34.30
2022-08-02T08:08:18.471Z,34.40
2022-08-02T08:10:49.233Z,34.60
2022-08-02T08:13:19.296Z,34.60
2022-08-02T08:15:52.175Z,34.70
2022-08-02T08:18:24.096Z,34.90
2022-08-02T08:20:55.248Z,35.00
2022-08-02T08:23:25.955Z,35.10
2022-08-02T08:25:56.073Z,35.10
2022-08-02T08:28:26.887Z,35.20
2022-08-02T08:30:57.424Z,35.20
2022-08-02T08:33:27.439Z,34.90
2022-08-02T08:35:57.603Z,33.70
2022-08-02T08:38:28.594Z,32.50
2022-08-02T08:40:59.224Z,31.70
2022-08-02T08:43:29.215Z,31.10
2022-08-02T08:45:59.320Z,30.70
2022-08-02T08:48:31.250Z,30.50
2022-08-02T08:51:17.178Z,30.20
2022-08-02T08:53:48.304Z,30.00
2022-08-02T08:56:18.836Z,29.80
2022-08-02T08:58:48.979Z,29.70
2022-08-02T09:01:19.642Z,29.60
2022-08-02T09:03:49.838Z,29.40
2022-08-02T09:06:20.073Z,29.30
2022-08-02T09:08:50.113Z,29.20
2022-08-02T09:11:21.829Z,29.20
2022-08-02T09:13:53.307Z,29.00
2022-08-02T09:16:37.240Z,29.00
2022-08-02T09:19:24.722Z,28.80
2022-08-02T09:22:03.358Z,28.80
2022-08-02T09:24:47.524Z,28.70
2022-08-02T09:27:22.460Z,28.60
2022-08-02T09:30:12.637Z,28.60
2022-08-02T09:32:47.731Z,28.60
2022-08-02T09:36:05.323Z,28.50
2022-08-02T09:38:31.560Z,28.40
2022-08-02T09:41:01.769Z,28.40
2022-08-02T09:44:03.413Z,28.40
2022-08-02T09:46:33.544Z,28.30
2022-08-02T09:49:06.248Z,28.30
2022-08-02T09:51:38.185Z,28.30
2022-08-02T09:54:13.206Z,28.20
2022-08-02T09:56:50.987Z,28.20
2022-08-02T09:59:22.138Z,28.10
2022-08-02T10:02:01.237Z,28.10
2022-08-02T10:04:53.267Z,28.10
2022-08-02T10:07:24.343Z,28.00
2022-08-02T10:09:54.462Z,27.90
2022-08-02T10:12:24.991Z,27.90
2022-08-02T10:14:55.149Z,27.90
2022-08-02T10:17:25.181Z,27.90
2022-08-02T10:20:02.212Z,27.90
2022-08-02T10:22:36.003Z,27.80
2022-08-02T10:25:06.827Z,27.80
2022-08-02T10:27:55.499Z,27.70
2022-08-02T10:30:27.289Z,27.70
2022-08-02T10:32:57.725Z,27.70
2022-08-02T10:35:27.882Z,27.60
2022-08-02T10:38:07.767Z,27.60
2022-08-02T10:40:55.000Z,27.60
2022-08-02T10:43:38.249Z,27.50
2022-08-02T10:46:24.347Z,27.60
2022-08-02T10:49:37.991Z,27.50
2022-08-02T10:52:03.747Z,27.50
2022-08-02T10:54:33.844Z,27.40
2022-08-02T10:57:04.336Z,27.40
2022-08-02T10:59:38.651Z,27.50
2022-08-02T11:02:08.788Z,27.40
2022-08-02T11:04:38.917Z,27.40
2022-08-02T11:07:16.123Z,27.40
2022-08-02T11:09:52.694Z,27.30
2022-08-02T11:12:23.442Z,27.30
2022-08-02T11:15:08.063Z,27.30
2022-08-02T11:17:57.714Z,27.30
2022-08-02T11:20:28.848Z,27.20
2022-08-02T11:23:21.015Z,27.20
2022-08-02T11:26:33.506Z,27.20
2022-08-02T11:29:05.327Z,27.10
2022-08-02T11:31:45.499Z,27.10
2022-08-02T11:34:28.452Z,27.10
2022-08-02T11:37:06.792Z,27.20
2022-08-02T11:39:36.842Z,27.10
2022-08-02T11:42:07.135Z,27.10
2022-08-02T11:44:43.984Z,27.00
2022-08-02T11:47:15.341Z,27.00
2022-08-02T11:49:46.060Z,27.00
2022-08-02T11:52:16.727Z,26.90
2022-08-02T11:54:46.899Z,26.90
2022-08-02T11:57:20.065Z,26.90
2022-08-02T11:59:52.814Z,26.90
2022-08-02T12:02:24.246Z,26.90
2022-08-02T12:04:58.105Z,26.80
2022-08-02T12:07:45.706Z,26.80
2022-08-02T12:10:23.816Z,26.80
2022-08-02T12:12:54.414Z,26.80
2022-08-02T12:15:45.794Z,26.80
2022-08-02T12:18:35.939Z,26.70
2022-08-02T12:21:06.432Z,26.70
2022-08-02T12:23:39.173Z,26.70
2022-08-02T12:26:29.468Z,26.70
2022-08-02T12:29:00.099Z,26.70
2022-08-02T12:31:55.917Z,26.70
2022-08-02T12:34:31.667Z,26.70
2022-08-02T12:37:12.215Z,26.70
2022-08-02T12:39:44.701Z,26.70
2022-08-02T12:42:16.630Z,26.60
2022-08-02T12:45:00.537Z,26.60
2022-08-02T12:47:35.676Z,26.60
2022-08-02T12:50:16.590Z,26.60
2022-08-02T12:52:46.895Z,26.60
2022-08-02T12:56:02.510Z,26.60
2022-08-02T12:58:17.774Z,26.60
2022-08-02T13:01:08.973Z,26.50
2022-08-02T13:04:10.270Z,26.50
2022-08-02T13:06:39.837Z,26.50
2022-08-02T13:09:16.519Z,26.50
2022-08-02T13:11:46.655Z,26.50
2022-08-02T13:14:16.857Z,26.50
2022-08-02T13:16:47.394Z,26.50
2022-08-02T13:19:17.639Z,26.50
2022-08-02T13:22:01.965Z,26.50
2022-08-02T13:24:40.946Z,26.50
2022-08-02T13:27:28.800Z,26.50
2022-08-02T13:29:59.222Z,26.40
2022-08-02T13:32:30.249Z,26.50
2022-08-02T13:35:00.477Z,26.40
2022-08-02T13:37:31.007Z,26.40
2022-08-02T13:40:20.442Z,26.40
2022-08-02T13:42:51.621Z,26.40
2022-08-02T13:45:21.720Z,26.40
2022-08-02T13:48:04.798Z,26.40
2022-08-02T13:50:41.228Z,26.40
2022-08-02T13:53:11.541Z,26.40
2022-08-02T13:55:43.277Z,26.40
2022-08-02T13:58:13.874Z,26.30
2022-08-02T14:00:44.468Z,26.30
2022-08-02T14:03:14.677Z,26.30
2022-08-02T14:05:48.416Z,26.30
2022-08-02T14:08:20.010Z,26.30
2022-08-02T14:10:51.023Z,26.30
2022-08-02T14:13:21.442Z,26.30
2022-08-02T14:15:51.554Z,26.30
2022-08-02T14:18:21.616Z,26.30
2022-08-02T14:20:51.601Z,26.20
2022-08-02T14:23:49.777Z,26.30
2022-08-02T14:26:26.930Z,26.20
2022-08-02T14:28:58.237Z,26.20
2022-08-02T14:31:29.242Z,26.20
2022-08-02T14:33:59.576Z,26.20
2022-08-02T14:36:29.681Z,26.20
2022-08-02T14:38:59.682Z,26.20
2022-08-02T14:41:29.816Z,26.20
2022-08-02T14:44:06.075Z,26.20
2022-08-02T14:46:42.506Z,26.20
2022-08-02T14:49:14.397Z,26.20
2022-08-02T14:51:46.956Z,26.20
2022-08-02T14:54:17.316Z,26.20
2022-08-02T14:56:48.888Z,26.20
2022-08-02T14:59:19.336Z,26.20
2022-08-02T15:01:50.148Z,26.10
2022-08-02T15:04:20.556Z,26.10
2022-08-02T15:06:50.617Z,26.10
2022-08-02T15:09:21.066Z,26.20
2022-08-02T15:11:51.800Z,26.10
2022-08-02T15:14:26.362Z,26.10
2022-08-02T15:16:58.396Z,26.10
2022-08-02T15:19:56.039Z,26.10
2022-08-02T15:22:20.698Z,26.10
2022-08-02T15:24:51.135Z,26.10
2022-08-02T15:27:21.539Z,26.10
2022-08-02T15:29:51.854Z,26.10
2022-08-02T15:32:23.127Z,26.10
2022-08-02T15:34:53.416Z,26.10
2022-08-02T15:37:23.484Z,26.10
2022-08-02T15:39:55.815Z,26.00
2022-08-02T15:42:30.587Z,26.00
2022-08-02T15:45:01.419Z,26.00
2022-08-02T15:47:31.519Z,26.00
2022-08-02T15:50:01.544Z,25.90
2022-08-02T15:52:32.637Z,25.90
2022-08-02T15:55:08.095Z,25.90
2022-08-02T15:57:38.302Z,25.90
2022-08-02T16:00:18.455Z,25.90
2022-08-02T16:02:49.330Z,25.80
2022-08-02T16:05:19.543Z,25.80
2022-08-02T16:07:50.094Z,25.80
2022-08-02T16:10:20.642Z,25.70
2022-08-02T16:12:52.832Z,25.70
2022-08-02T16:15:23.422Z,25.70
2022-08-02T16:17:54.689Z,25.70
2022-08-02T16:20:25.432Z,25.60
2022-08-02T16:22:56.396Z,25.60
2022-08-02T16:25:28.327Z,25.60
2022-08-02T16:28:06.984Z,25.60
2022-08-02T16:30:38.140Z,25.60
2022-08-02T16:33:08.839Z,25.50
2022-08-02T16:35:39.337Z,25.50
2022-08-02T16:38:09.379Z,25.50
2022-08-02T16:40:39.476Z,25.50
2022-08-02T16:43:09.487Z,25.50
2022-08-02T16:45:39.510Z,25.40
2022-08-02T16:48:15.671Z,25.50
2022-08-02T16:50:46.612Z,25.40
2022-08-02T16:53:34.234Z,25.40
2022-08-02T16:56:07.229Z,25.40
2022-08-02T16:58:37.789Z,25.40
2022-08-02T17:01:07.977Z,25.30
2022-08-02T17:03:56.002Z,25.30
2022-08-02T17:06:27.619Z,25.30
2022-08-02T17:08:58.113Z,25.30
2022-08-02T17:11:29.538Z,25.30
2022-08-02T17:13:59.600Z,25.20
2022-08-02T17:16:29.748Z,25.20
2022-08-02T17:19:01.029Z,25.20
2022-08-02T17:21:33.113Z,25.20
2022-08-02T17:24:07.627Z,25.20
2022-08-02T17:26:39.342Z,25.20
2022-08-02T17:29:15.986Z,25.10
2022-08-02T17:32:05.794Z,25.10
2022-08-02T17:34:38.942Z,25.10
2022-08-02T17:37:09.152Z,25.10
2022-08-02T17:39:44.296Z,25.10
2022-08-02T17:42:23.142Z,25.10
2022-08-02T17:44:54.939Z,25.00
2022-08-02T17:47:42.001Z,25.00
2022-08-02T17:50:12.976Z,25.00
2022-08-02T17:52:50.720Z,25.00
2022-08-02T17:55:23.199Z,25.00
2022-08-02T17:57:58.286Z,25.00
2022-08-02T18:00:38.902Z,25.00
2022-08-02T18:03:10.183Z,25.00
2022-08-02T18:05:53.505Z,24.90
2022-08-02T18:08:25.487Z,24.90
2022-08-02T18:10:56.897Z,24.90
2022-08-02T18:13:32.716Z,24.90
2022-08-02T18:16:03.339Z,24.90
2022-08-02T18:18:34.115Z,24.90
2022-08-02T18:21:22.234Z,24.90
2022-08-02T18:23:58.443Z,24.90
2022-08-02T18:26:29.861Z,24.90
2022-08-02T18:29:01.395Z,24.90
2022-08-02T18:31:39.696Z,24.90
2022-08-02T18:34:10.077Z,24.90
2022-08-02T18:39:32.983Z,24.80
2022-08-02T18:42:03.157Z,24.80
2022-08-02T18:44:33.270Z,24.80
2022-08-02T18:47:04.008Z,24.80
2022-08-02T18:49:46.731Z,24.80
2022-08-02T18:52:30.920Z,24.80
2022-08-02T18:55:01.695Z,24.80
2022-08-02T18:58:02.211Z,24.80
2022-08-02T19:00:25.593Z,24.80
2022-08-02T19:02:56.544Z,24.80
2022-08-02T19:05:51.571Z,24.80
2022-08-02T19:08:16.853Z,24.70
2022-08-02T19:10:50.024Z,24.70
2022-08-02T19:13:20.197Z,24.70
2022-08-02T19:15:50.474Z,24.70
2022-08-02T19:18:26.840Z,24.70
2022-08-02T19:21:05.615Z,24.70
2022-08-02T19:23:37.286Z,24.70
2022-08-02T19:26:24.761Z,24.70
2022-08-02T19:28:56.140Z,24.70
2022-08-02T19:31:34.572Z,24.70
2022-08-02T19:34:07.166Z,24.70
2022-08-02T19:36:38.112Z,24.70
2022-08-02T19:39:10.722Z,24.60
2022-08-02T19:41:47.134Z,24.70
2022-08-02T19:44:25.767Z,24.60
2022-08-02T19:46:58.930Z,24.60
2022-08-02T19:49:40.623Z,24.60
2022-08-02T19:52:20.613Z,24.60
2022-08-02T19:54:55.174Z,24.60
2022-08-02T19:57:26.784Z,24.60
2022-08-02T19:59:58.696Z,24.60
2022-08-02T20:02:28.981Z,24.60
2022-08-02T20:04:59.369Z,24.60
2022-08-02T20:07:48.209Z,24.50
2022-08-02T20:13:10.544Z,24.50
2022-08-02T20:15:55.786Z,24.50
2022-08-02T20:18:31.159Z,24.50
2022-08-02T20:21:01.543Z,24.50
2022-08-02T20:23:33.840Z,24.60
2022-08-02T20:26:06.569Z,24.50
2022-08-02T20:28:39.233Z,24.50
2022-08-02T20:31:11.299Z,24.50
2022-08-02T20:33:55.776Z,24.50
2022-08-02T20:36:29.754Z,24.50
2022-08-02T20:38:59.840Z,24.50
2022-08-02T20:41:36.809Z,24.50
2022-08-02T20:44:31.328Z,24.50
2022-08-02T20:47:02.371Z,24.50
2022-08-02T20:49:41.182Z,24.50
2022-08-02T20:52:24.534Z,24.50
2022-08-02T20:54:54.749Z,24.50
2022-08-02T20:57:48.574Z,24.50
2022-08-02T21:00:18.169Z,24.50
2022-08-02T21:02:51.097Z,24.50
2022-08-02T21:05:26.819Z,24.40
2022-08-02T21:08:13.997Z,24.50
2022-08-02T21:10:51.742Z,24.40
2022-08-02T21:13:26.447Z,24.40
2022-08-02T21:16:06.940Z,24.40
2022-08-02T21:18:41.235Z,24.50
2022-08-02T21:21:12.051Z,24.40
2022-08-02T21:23:48.632Z,24.40
2022-08-02T21:26:19.853Z,24.40
2022-08-02T21:28:58.286Z,24.40
2022-08-02T21:31:33.383Z,24.40
2022-08-02T21:34:21.988Z,24.40
2022-08-02T21:36:57.202Z,24.30
2022-08-02T21:39:27.295Z,24.40
2022-08-02T21:41:57.981Z,24.40
2022-08-02T21:44:29.515Z,24.40
2022-08-02T21:46:59.844Z,24.40
2022-08-02T21:50:08.964Z,24.40
2022-08-02T21:58:04.469Z,24.30
2022-08-02T22:00:34.822Z,24.40
2022-08-02T22:03:22.281Z,24.40
2022-08-02T22:05:53.463Z,24.40
2022-08-02T22:08:23.887Z,24.40
2022-08-02T22:11:03.227Z,24.40
2022-08-02T22:13:38.820Z,24.40
2022-08-02T22:16:18.316Z,24.40
2022-08-02T22:18:51.383Z,24.40
2022-08-02T22:21:23.912Z,24.40
2022-08-02T22:23:54.874Z,24.40
2022-08-02T22:26:24.998Z,24.40
2022-08-02T22:28:59.429Z,24.40
2022-08-02T22:31:41.437Z,24.40
2022-08-02T22:34:37.092Z,24.40
2022-08-02T22:37:02.253Z,24.40
2022-08-02T22:39:37.507Z,24.40
2022-08-02T22:42:27.529Z,24.50
2022-08-02T22:44:57.633Z,24.40
2022-08-02T22:47:27.622Z,24.40
2022-08-02T22:49:59.718Z,24.40
2022-08-02T22:52:32.077Z,24.40
2022-08-02T22:55:02.171Z,24.50
2022-08-02T22:57:32.549Z,24.50
2022-08-02T22:58:44.950Z,24.80
2022-08-02T22:58:54.798Z,24.60
2022-08-02T22:59:03.802Z,24.30
2022-08-02T23:00:05.190Z,24.50
2022-08-02T23:02:35.325Z,24.50
2022-08-02T23:05:08.658Z,24.50
2022-08-02T23:07:38.970Z,24.50
2022-08-02T23:10:09.630Z,24.50
2022-08-02T23:12:40.197Z,24.50
2022-08-02T23:15:11.329Z,24.50
2022-08-02T23:17:59.365Z,24.50
2022-08-02T23:20:29.484Z,24.50
2022-08-02T23:23:00.178Z,24.50
2022-08-02T23:25:30.745Z,24.50
2022-08-02T23:28:00.768Z,24.50
2022-08-02T23:30:30.827Z,24.50
2022-08-02T23:33:00.890Z,24.50
2022-08-02T23:35:33.174Z,24.50
2022-08-02T23:38:04.909Z,24.50
2022-08-02T23:40:40.678Z,24.50
2022-08-02T23:43:14.155Z,24.50
2022-08-02T23:45:49.441Z,24.50
2022-08-02T23:48:19.580Z,24.50
2022-08-02T23:50:49.617Z,24.50
2022-08-02T23:53:19.681Z,24.50
2022-08-02T23:55:49.675Z,24.50
2022-08-02T23:58:20.171Z,24.50
